sensor_id;sensor_type;location;lat;lon;timestamp;P1;durP1;ratioP1;P2;durP2;ratioP2
50367;SDS011;36281;34.132;-118.018;2022-08-07T00:00:24;7.90;;;3.03;;
50367;SDS011;36281;34.132;-118.018;2022-08-07T00:02:58;6.43;;;2.60;;
50367;SDS011;36281;34.132;-118.018;2022-08-07T00:05:31;6.63;;;2.67;;
50367;SDS011;36281;34.132;-118.018;2022-08-07T00:08:03;5.35;;;2.60;;
50367;SDS011;36281;34.132;-118.018;2022-08-07T00:10:34;3.75;;;2.40;;
50367;SDS011;36281;34.132;-118.018;2022-08-07T00:13:23;3.70;;;2.45;;
50367;SDS011;36281;34.132;-118.018;2022-08-07T00:15:53;3.50;;;2.20;;
50367;SDS011;36281;34.132;-118.018;2022-08-07T00:18:23;4.10;;;2.22;;
50367;SDS011;36281;34.132;-118.018;2022-08-07T00:20:55;2.35;;;2.13;;
50367;SDS011;36281;34.132;-118.018;2022-08-07T00:23:34;3.78;;;2.40;;
50367;SDS011;36281;34.132;-118.018;2022-08-07T00:26:06;2.38;;;2.00;;
50367;SDS011;36281;34.132;-118.018;2022-08-07T00:28:39;2.65;;;2.10;;
50367;SDS011;36281;34.132;-118.018;2022-08-07T00:31:21;3.42;;;2.20;;
50367;SDS011;36281;34.132;-118.018;2022-08-07T00:34:04;4.88;;;2.30;;
50367;SDS011;36281;34.132;-118.018;2022-08-07T00:36:36;4.05;;;2.22;;
50367;SDS011;36281;34.132;-118.018;2022-08-07T00:39:09;4.43;;;2.23;;
50367;SDS011;36281;34.132;-118.018;2022-08-07T00:41:47;3.30;;;2.22;;
50367;SDS011;36281;34.132;-118.018;2022-08-07T00:44:27;4.40;;;2.22;;
50367;SDS011;36281;34.132;-118.018;2022-08-07T00:46:59;6.22;;;2.33;;
50367;SDS011;36281;34.132;-118.018;2022-08-07T00:49:28;3.22;;;2.30;;
50367;SDS011;36281;34.132;-118.018;2022-08-07T00:52:18;4.10;;;2.30;;
50367;SDS011;36281;34.132;-118.018;2022-08-07T00:54:47;3.08;;;2.00;;
50367;SDS011;36281;34.132;-118.018;2022-08-07T00:57:20;2.33;;;2.13;;
50367;SDS011;36281;34.132;-118.018;2022-08-07T00:59:52;5.43;;;2.42;;
50367;SDS011;36281;34.132;-118.018;2022-08-07T01:02:21;3.72;;;2.28;;
50367;SDS011;36281;34.132;-118.018;2022-08-07T01:04:55;4.07;;;2.00;;
50367;SDS011;36281;34.132;-118.018;2022-08-07T01:07:26;4.40;;;2.30;;
50367;SDS011;36281;34.132;-118.018;2022-08-07T01:09:57;2.92;;;2.08;;
50367;SDS011;36281;34.132;-118.018;2022-08-07T01:12:36;4.32;;;2.22;;
50367;SDS011;36281;34.132;-118.018;2022-08-07T01:15:20;2.67;;;2.20;;
50367;SDS011;36281;34.132;-118.018;2022-08-07T01:18:10;5.97;;;2.63;;
50367;SDS011;36281;34.132;-118.018;2022-08-07T01:20:44;5.22;;;2.08;;
50367;SDS011;36281;34.132;-118.018;2022-08-07T01:23:26;4.03;;;2.53;;
50367;SDS011;36281;34.132;-118.018;2022-08-07T01:26:05;2.65;;;2.30;;
50367;SDS011;36281;34.132;-118.018;2022-08-07T01:28:38;6.15;;;2.60;;
50367;SDS011;36281;34.132;-118.018;2022-08-07T01:31:15;4.97;;;2.25;;
50367;SDS011;36281;34.132;-118.018;2022-08-07T01:33:46;4.85;;;2.85;;
50367;SDS011;36281;34.132;-118.018;2022-08-07T01:36:22;6.55;;;3.00;;
50367;SDS011;36281;34.132;-118.018;2022-08-07T01:39:03;5.57;;;2.70;;
50367;SDS011;36281;34.132;-118.018;2022-08-07T01:41:36;4.93;;;2.55;;
50367;SDS011;36281;34.132;-118.018;2022-08-07T01:44:25;4.07;;;3.22;;
50367;SDS011;36281;34.132;-118.018;2022-08-07T01:46:56;4.97;;;3.10;;
50367;SDS011;36281;34.132;-118.018;2022-08-07T01:49:46;4.90;;;2.72;;
50367;SDS011;36281;34.132;-118.018;2022-08-07T01:52:20;4.43;;;2.83;;
50367;SDS011;36281;34.132;-118.018;2022-08-07T01:54:54;3.00;;;2.40;;
50367;SDS011;36281;34.132;-118.018;2022-08-07T01:57:26;4.53;;;2.83;;
50367;SDS011;36281;34.132;-118.018;2022-08-07T02:00:18;4.78;;;2.70;;
50367;SDS011;36281;34.132;-118.018;2022-08-07T02:02:55;2.88;;;2.58;;
50367;SDS011;36281;34.132;-118.018;2022-08-07T02:05:49;4.05;;;2.47;;
50367;SDS011;36281;34.132;-118.018;2022-08-07T02:08:27;3.30;;;2.38;;
50367;SDS011;36281;34.132;-118.018;2022-08-07T02:10:59;3.42;;;2.30;;
50367;SDS011;36281;34.132;-118.018;2022-08-07T02:13:29;5.30;;;2.58;;
50367;SDS011;36281;34.132;-118.018;2022-08-07T02:16:21;4.97;;;2.90;;
50367;SDS011;36281;34.132;-118.018;2022-08-07T02:18:59;4.72;;;2.72;;
50367;SDS011;36281;34.132;-118.018;2022-08-07T02:21:50;4.30;;;2.72;;
50367;SDS011;36281;34.132;-118.018;2022-08-07T02:24:24;3.90;;;2.78;;
50367;SDS011;36281;34.132;-118.018;2022-08-07T02:26:57;6.20;;;2.95;;
50367;SDS011;36281;34.132;-118.018;2022-08-07T02:29:28;3.78;;;2.72;;
50367;SDS011;36281;34.132;-118.018;2022-08-07T02:32:02;5.88;;;3.00;;
50367;SDS011;36281;34.132;-118.018;2022-08-07T02:34:36;6.47;;;2.90;;
50367;SDS011;36281;34.132;-118.018;2022-08-07T02:37:17;5.20;;;3.10;;
50367;SDS011;36281;34.132;-118.018;2022-08-07T02:39:47;4.38;;;2.83;;
50367;SDS011;36281;34.132;-118.018;2022-08-07T02:42:39;3.85;;;2.60;;
50367;SDS011;36281;34.132;-118.018;2022-08-07T02:45:09;4.20;;;2.70;;
50367;SDS011;36281;34.132;-118.018;2022-08-07T02:48:00;5.80;;;3.22;;
50367;SDS011;36281;34.132;-118.018;2022-08-07T02:50:37;6.45;;;3.10;;
50367;SDS011;36281;34.132;-118.018;2022-08-07T02:53:10;5.60;;;3.08;;
50367;SDS011;36281;34.132;-118.018;2022-08-07T02:55:45;5.65;;;3.22;;
50367;SDS011;36281;34.132;-118.018;2022-08-07T02:58:32;8.38;;;3.13;;
50367;SDS011;36281;34.132;-118.018;2022-08-07T03:01:13;7.10;;;2.88;;
50367;SDS011;36281;34.132;-118.018;2022-08-07T03:04:02;7.03;;;3.22;;
50367;SDS011;36281;34.132;-118.018;2022-08-07T03:06:35;5.40;;;3.10;;
50367;SDS011;36281;34.132;-118.018;2022-08-07T03:09:05;4.95;;;2.80;;
50367;SDS011;36281;34.132;-118.018;2022-08-07T03:11:37;7.10;;;3.42;;
50367;SDS011;36281;34.132;-118.018;2022-08-07T03:14:20;8.70;;;3.08;;
50367;SDS011;36281;34.132;-118.018;2022-08-07T03:16:51;6.53;;;3.28;;
50367;SDS011;36281;34.132;-118.018;2022-08-07T03:19:20;4.85;;;2.97;;
50367;SDS011;36281;34.132;-118.018;2022-08-07T03:21:54;5.37;;;3.20;;
50367;SDS011;36281;34.132;-118.018;2022-08-07T03:24:24;5.85;;;2.85;;
50367;SDS011;36281;34.132;-118.018;2022-08-07T03:26:54;5.78;;;3.22;;
50367;SDS011;36281;34.132;-118.018;2022-08-07T03:29:33;7.70;;;3.67;;
50367;SDS011;36281;34.132;-118.018;2022-08-07T03:32:15;9.75;;;3.70;;
50367;SDS011;36281;34.132;-118.018;2022-08-07T03:34:49;4.57;;;3.03;;
50367;SDS011;36281;34.132;-118.018;2022-08-07T03:37:42;6.90;;;3.35;;
50367;SDS011;36281;34.132;-118.018;2022-08-07T03:40:20;6.53;;;3.10;;
50367;SDS011;36281;34.132;-118.018;2022-08-07T03:43:01;5.63;;;2.80;;
50367;SDS011;36281;34.132;-118.018;2022-08-07T03:45:41;9.88;;;3.47;;
50367;SDS011;36281;34.132;-118.018;2022-08-07T03:48:14;6.05;;;3.00;;
50367;SDS011;36281;34.132;-118.018;2022-08-07T03:50:43;5.53;;;3.00;;
50367;SDS011;36281;34.132;-118.018;2022-08-07T03:53:23;5.38;;;3.47;;
50367;SDS011;36281;34.132;-118.018;2022-08-07T03:56:13;6.00;;;3.50;;
50367;SDS011;36281;34.132;-118.018;2022-08-07T03:58:58;7.10;;;3.35;;
50367;SDS011;36281;34.132;-118.018;2022-08-07T04:01:42;6.53;;;3.30;;
50367;SDS011;36281;34.132;-118.018;2022-08-07T04:04:12;6.68;;;3.20;;
50367;SDS011;36281;34.132;-118.018;2022-08-07T04:06:44;8.75;;;3.22;;
50367;SDS011;36281;34.132;-118.018;2022-08-07T04:09:17;6.25;;;3.10;;
50367;SDS011;36281;34.132;-118.018;2022-08-07T04:11:49;6.00;;;2.92;;
50367;SDS011;36281;34.132;-118.018;2022-08-07T04:14:39;10.60;;;3.67;;
50367;SDS011;36281;34.132;-118.018;2022-08-07T04:17:13;5.22;;;2.90;;
50367;SDS011;36281;34.132;-118.018;2022-08-07T04:19:47;8.88;;;3.50;;
50367;SDS011;36281;34.132;-118.018;2022-08-07T04:22:21;8.30;;;3.60;;
50367;SDS011;36281;34.132;-118.018;2022-08-07T04:24:55;6.83;;;3.10;;
50367;SDS011;36281;34.132;-118.018;2022-08-07T04:27:27;6.25;;;3.60;;
50367;SDS011;36281;34.132;-118.018;2022-08-07T04:30:05;6.18;;;3.47;;
50367;SDS011;36281;34.132;-118.018;2022-08-07T04:32:57;9.02;;;3.45;;
50367;SDS011;36281;34.132;-118.018;2022-08-07T04:35:33;9.55;;;3.58;;
50367;SDS011;36281;34.132;-118.018;2022-08-07T04:38:05;8.23;;;3.60;;
50367;SDS011;36281;34.132;-118.018;2022-08-07T04:40:39;8.82;;;3.35;;
50367;SDS011;36281;34.132;-118.018;2022-08-07T04:43:17;10.68;;;3.90;;
50367;SDS011;36281;34.132;-118.018;2022-08-07T04:46:09;7.93;;;3.25;;
50367;SDS011;36281;34.132;-118.018;2022-08-07T04:48:56;9.32;;;3.53;;
50367;SDS011;36281;34.132;-118.018;2022-08-07T04:51:47;11.38;;;3.60;;
50367;SDS011;36281;34.132;-118.018;2022-08-07T04:54:27;7.85;;;3.25;;
50367;SDS011;36281;34.132;-118.018;2022-08-07T04:57:05;12.90;;;3.60;;
50367;SDS011;36281;34.132;-118.018;2022-08-07T05:00:02;8.45;;;3.40;;
50367;SDS011;36281;34.132;-118.018;2022-08-07T05:02:57;9.02;;;3.70;;
50367;SDS011;36281;34.132;-118.018;2022-08-07T05:05:53;8.70;;;3.50;;
50367;SDS011;36281;34.132;-118.018;2022-08-07T05:08:46;11.18;;;3.88;;
50367;SDS011;36281;34.132;-118.018;2022-08-07T05:11:29;7.95;;;3.80;;
50367;SDS011;36281;34.132;-118.018;2022-08-07T05:14:24;10.13;;;3.97;;
50367;SDS011;36281;34.132;-118.018;2022-08-07T05:17:15;6.07;;;3.15;;
50367;SDS011;36281;34.132;-118.018;2022-08-07T05:20:06;9.32;;;3.80;;
50367;SDS011;36281;34.132;-118.018;2022-08-07T05:22:40;9.02;;;3.75;;
50367;SDS011;36281;34.132;-118.018;2022-08-07T05:25:14;6.22;;;3.30;;
50367;SDS011;36281;34.132;-118.018;2022-08-07T05:28:03;8.32;;;3.80;;
50367;SDS011;36281;34.132;-118.018;2022-08-07T05:30:49;5.93;;;3.30;;
50367;SDS011;36281;34.132;-118.018;2022-08-07T05:33:21;8.52;;;3.80;;
50367;SDS011;36281;34.132;-118.018;2022-08-07T05:35:52;6.15;;;3.45;;
50367;SDS011;36281;34.132;-118.018;2022-08-07T05:38:24;7.13;;;3.58;;
50367;SDS011;36281;34.132;-118.018;2022-08-07T05:41:15;8.85;;;3.75;;
50367;SDS011;36281;34.132;-118.018;2022-08-07T05:43:49;8.07;;;3.88;;
50367;SDS011;36281;34.132;-118.018;2022-08-07T05:46:38;10.02;;;3.50;;
50367;SDS011;36281;34.132;-118.018;2022-08-07T05:49:09;8.95;;;4.35;;
50367;SDS011;36281;34.132;-118.018;2022-08-07T05:51:40;9.02;;;3.60;;
50367;SDS011;36281;34.132;-118.018;2022-08-07T05:54:14;10.30;;;4.13;;
50367;SDS011;36281;34.132;-118.018;2022-08-07T05:57:04;8.00;;;3.90;;
50367;SDS011;36281;34.132;-118.018;2022-08-07T05:59:36;12.73;;;4.05;;
50367;SDS011;36281;34.132;-118.018;2022-08-07T06:02:24;7.25;;;4.10;;
50367;SDS011;36281;34.132;-118.018;2022-08-07T06:04:58;8.27;;;3.92;;
50367;SDS011;36281;34.132;-118.018;2022-08-07T06:07:30;8.77;;;4.30;;
50367;SDS011;36281;34.132;-118.018;2022-08-07T06:10:21;8.23;;;3.70;;
50367;SDS011;36281;34.132;-118.018;2022-08-07T06:12:51;8.43;;;3.97;;
50367;SDS011;36281;34.132;-118.018;2022-08-07T06:15:21;12.63;;;4.38;;
50367;SDS011;36281;34.132;-118.018;2022-08-07T06:18:08;8.70;;;4.07;;
50367;SDS011;36281;34.132;-118.018;2022-08-07T06:20:40;9.75;;;4.22;;
50367;SDS011;36281;34.132;-118.018;2022-08-07T06:23:31;10.00;;;4.35;;
50367;SDS011;36281;34.132;-118.018;2022-08-07T06:26:21;10.13;;;4.70;;
50367;SDS011;36281;34.132;-118.018;2022-08-07T06:28:55;9.13;;;4.28;;
50367;SDS011;36281;34.132;-118.018;2022-08-07T06:31:27;12.30;;;4.47;;
50367;SDS011;36281;34.132;-118.018;2022-08-07T06:34:16;13.88;;;4.40;;
50367;SDS011;36281;34.132;-118.018;2022-08-07T06:36:47;15.60;;;4.63;;
50367;SDS011;36281;34.132;-118.018;2022-08-07T06:39:18;12.77;;;4.20;;
50367;SDS011;36281;34.132;-118.018;2022-08-07T06:42:10;8.02;;;3.85;;
50367;SDS011;36281;34.132;-118.018;2022-08-07T06:44:44;11.98;;;3.88;;
50367;SDS011;36281;34.132;-118.018;2022-08-07T06:47:17;11.05;;;4.25;;
50367;SDS011;36281;34.132;-118.018;2022-08-07T06:49:47;8.43;;;4.60;;
50367;SDS011;36281;34.132;-118.018;2022-08-07T06:52:18;10.77;;;4.40;;
50367;SDS011;36281;34.132;-118.018;2022-08-07T06:55:01;10.10;;;4.25;;
50367;SDS011;36281;34.132;-118.018;2022-08-07T06:57:56;10.75;;;4.60;;
50367;SDS011;36281;34.132;-118.018;2022-08-07T07:00:30;11.50;;;3.97;;
50367;SDS011;36281;34.132;-118.018;2022-08-07T07:03:04;8.43;;;4.13;;
50367;SDS011;36281;34.132;-118.018;2022-08-07T07:05:42;9.63;;;4.50;;
50367;SDS011;36281;34.132;-118.018;2022-08-07T07:08:31;10.27;;;4.53;;
50367;SDS011;36281;34.132;-118.018;2022-08-07T07:11:05;12.30;;;4.20;;
50367;SDS011;36281;34.132;-118.018;2022-08-07T07:13:56;12.65;;;4.65;;
50367;SDS011;36281;34.132;-118.018;2022-08-07T07:16:29;8.82;;;4.40;;
50367;SDS011;36281;34.132;-118.018;2022-08-07T07:19:17;9.70;;;4.30;;
50367;SDS011;36281;34.132;-118.018;2022-08-07T07:22:09;7.85;;;3.92;;
50367;SDS011;36281;34.132;-118.018;2022-08-07T07:24:59;9.70;;;4.22;;
50367;SDS011;36281;34.132;-118.018;2022-08-07T07:27:52;8.20;;;4.20;;
50367;SDS011;36281;34.132;-118.018;2022-08-07T07:30:33;9.52;;;3.83;;
50367;SDS011;36281;34.132;-118.018;2022-08-07T07:33:07;8.13;;;4.28;;
50367;SDS011;36281;34.132;-118.018;2022-08-07T07:35:40;7.78;;;4.65;;
50367;SDS011;36281;34.132;-118.018;2022-08-07T07:38:31;8.63;;;4.32;;
50367;SDS011;36281;34.132;-118.018;2022-08-07T07:41:03;10.48;;;4.63;;
50367;SDS011;36281;34.132;-118.018;2022-08-07T07:43:36;10.23;;;3.83;;
50367;SDS011;36281;34.132;-118.018;2022-08-07T07:46:31;8.45;;;3.85;;
50367;SDS011;36281;34.132;-118.018;2022-08-07T07:49:23;8.60;;;4.70;;
50367;SDS011;36281;34.132;-118.018;2022-08-07T07:52:15;11.60;;;4.88;;
50367;SDS011;36281;34.132;-118.018;2022-08-07T07:54:45;9.77;;;4.50;;
50367;SDS011;36281;34.132;-118.018;2022-08-07T07:57:18;11.18;;;4.78;;
50367;SDS011;36281;34.132;-118.018;2022-08-07T08:00:10;10.40;;;4.65;;
50367;SDS011;36281;34.132;-118.018;2022-08-07T08:03:00;9.52;;;4.32;;
50367;SDS011;36281;34.132;-118.018;2022-08-07T08:05:38;9.70;;;4.25;;
50367;SDS011;36281;34.132;-118.018;2022-08-07T08:08:21;9.93;;;4.80;;
50367;SDS011;36281;34.132;-118.018;2022-08-07T08:11:05;8.98;;;4.45;;
50367;SDS011;36281;34.132;-118.018;2022-08-07T08:13:56;8.77;;;4.70;;
50367;SDS011;36281;34.132;-118.018;2022-08-07T08:16:31;8.38;;;4.25;;
50367;SDS011;36281;34.132;-118.018;2022-08-07T08:19:03;10.40;;;4.65;;
50367;SDS011;36281;34.132;-118.018;2022-08-07T08:21:55;11.75;;;4.63;;
50367;SDS011;36281;34.132;-118.018;2022-08-07T08:24:44;11.93;;;4.60;;
50367;SDS011;36281;34.132;-118.018;2022-08-07T08:27:53;10.98;;;5.15;;
50367;SDS011;36281;34.132;-118.018;2022-08-07T08:30:29;9.60;;;4.22;;
50367;SDS011;36281;34.132;-118.018;2022-08-07T08:33:16;8.75;;;4.97;;
50367;SDS011;36281;34.132;-118.018;2022-08-07T08:35:49;9.50;;;4.47;;
50367;SDS011;36281;34.132;-118.018;2022-08-07T08:38:22;10.48;;;4.65;;
50367;SDS011;36281;34.132;-118.018;2022-08-07T08:41:06;11.18;;;5.10;;
50367;SDS011;36281;34.132;-118.018;2022-08-07T08:43:45;11.07;;;4.78;;
50367;SDS011;36281;34.132;-118.018;2022-08-07T08:46:27;10.20;;;4.80;;
50367;SDS011;36281;34.132;-118.018;2022-08-07T08:49:06;9.00;;;4.60;;
50367;SDS011;36281;34.132;-118.018;2022-08-07T08:51:45;10.27;;;4.53;;
50367;SDS011;36281;34.132;-118.018;2022-08-07T08:54:41;9.45;;;5.03;;
50367;SDS011;36281;34.132;-118.018;2022-08-07T08:57:18;9.85;;;4.13;;
50367;SDS011;36281;34.132;-118.018;2022-08-07T09:00:01;9.93;;;4.60;;
50367;SDS011;36281;34.132;-118.018;2022-08-07T09:02:36;11.52;;;5.03;;
50367;SDS011;36281;34.132;-118.018;2022-08-07T09:05:27;13.15;;;5.07;;
50367;SDS011;36281;34.132;-118.018;2022-08-07T09:08:12;13.05;;;5.30;;
50367;SDS011;36281;34.132;-118.018;2022-08-07T09:10:58;9.80;;;4.97;;
50367;SDS011;36281;34.132;-118.018;2022-08-07T09:13:36;11.60;;;5.45;;
50367;SDS011;36281;34.132;-118.018;2022-08-07T09:16:13;9.50;;;5.00;;
50367;SDS011;36281;34.132;-118.018;2022-08-07T09:19:05;11.88;;;4.97;;
50367;SDS011;36281;34.132;-118.018;2022-08-07T09:22:06;10.57;;;4.93;;
50367;SDS011;36281;34.132;-118.018;2022-08-07T09:25:08;13.55;;;5.05;;
50367;SDS011;36281;34.132;-118.018;2022-08-07T09:27:50;10.23;;;4.82;;
50367;SDS011;36281;34.132;-118.018;2022-08-07T09:30:31;12.00;;;4.85;;
50367;SDS011;36281;34.132;-118.018;2022-08-07T09:33:26;9.52;;;4.63;;
50367;SDS011;36281;34.132;-118.018;2022-08-07T09:36:27;10.10;;;4.45;;
50367;SDS011;36281;34.132;-118.018;2022-08-07T09:39:06;9.90;;;5.28;;
50367;SDS011;36281;34.132;-118.018;2022-08-07T09:42:15;11.95;;;4.50;;
50367;SDS011;36281;34.132;-118.018;2022-08-07T09:45:02;10.70;;;4.53;;
50367;SDS011;36281;34.132;-118.018;2022-08-07T09:48:02;10.55;;;4.90;;
50367;SDS011;36281;34.132;-118.018;2022-08-07T09:50:49;11.90;;;5.05;;
50367;SDS011;36281;34.132;-118.018;2022-08-07T09:53:32;10.45;;;4.93;;
50367;SDS011;36281;34.132;-118.018;2022-08-07T09:56:18;9.48;;;4.75;;
50367;SDS011;36281;34.132;-118.018;2022-08-07T09:59:24;8.25;;;5.05;;
50367;SDS011;36281;34.132;-118.018;2022-08-07T10:05:00;10.27;;;4.43;;
50367;SDS011;36281;34.132;-118.018;2022-08-07T10:08:08;10.18;;;4.50;;
50367;SDS011;36281;34.132;-118.018;2022-08-07T10:10:51;9.02;;;4.63;;
50367;SDS011;36281;34.132;-118.018;2022-08-07T10:13:51;10.40;;;4.65;;
50367;SDS011;36281;34.132;-118.018;2022-08-07T10:16:46;10.30;;;5.07;;
50367;SDS011;36281;34.132;-118.018;2022-08-07T10:19:43;9.70;;;4.60;;
50367;SDS011;36281;34.132;-118.018;2022-08-07T10:25:35;9.35;;;4.82;;
50367;SDS011;36281;34.132;-118.018;2022-08-07T10:28:26;9.50;;;4.88;;
50367;SDS011;36281;34.132;-118.018;2022-08-07T10:31:31;10.15;;;4.53;;
50367;SDS011;36281;34.132;-118.018;2022-08-07T10:34:20;9.27;;;4.60;;
50367;SDS011;36281;34.132;-118.018;2022-08-07T10:39:42;9.10;;;4.65;;
50367;SDS011;36281;34.132;-118.018;2022-08-07T10:42:35;9.85;;;4.88;;
50367;SDS011;36281;34.132;-118.018;2022-08-07T10:45:14;9.43;;;4.63;;
50367;SDS011;36281;34.132;-118.018;2022-08-07T10:48:10;14.15;;;5.10;;
50367;SDS011;36281;34.132;-118.018;2022-08-07T10:51:02;12.35;;;4.95;;
50367;SDS011;36281;34.132;-118.018;2022-08-07T10:53:59;8.50;;;4.50;;
50367;SDS011;36281;34.132;-118.018;2022-08-07T10:56:42;10.38;;;4.40;;
50367;SDS011;36281;34.132;-118.018;2022-08-07T10:59:32;7.88;;;4.18;;
50367;SDS011;36281;34.132;-118.018;2022-08-07T11:02:15;11.15;;;5.03;;
50367;SDS011;36281;34.132;-118.018;2022-08-07T11:05:18;10.85;;;4.55;;
50367;SDS011;36281;34.132;-118.018;2022-08-07T11:08:19;11.38;;;5.00;;
50367;SDS011;36281;34.132;-118.018;2022-08-07T11:11:00;9.15;;;4.15;;
50367;SDS011;36281;34.132;-118.018;2022-08-07T11:13:36;7.57;;;4.50;;
50367;SDS011;36281;34.132;-118.018;2022-08-07T11:16:30;11.38;;;4.82;;
50367;SDS011;36281;34.132;-118.018;2022-08-07T11:19:05;11.52;;;4.75;;
50367;SDS011;36281;34.132;-118.018;2022-08-07T11:21:57;7.97;;;4.32;;
50367;SDS011;36281;34.132;-118.018;2022-08-07T11:24:46;6.55;;;4.40;;
50367;SDS011;36281;34.132;-118.018;2022-08-07T11:27:21;11.15;;;4.57;;
50367;SDS011;36281;34.132;-118.018;2022-08-07T11:30:17;7.20;;;4.20;;
50367;SDS011;36281;34.132;-118.018;2022-08-07T11:33:10;12.20;;;4.40;;
50367;SDS011;36281;34.132;-118.018;2022-08-07T11:36:12;9.57;;;4.40;;
50367;SDS011;36281;34.132;-118.018;2022-08-07T11:39:00;11.80;;;4.90;;
50367;SDS011;36281;34.132;-118.018;2022-08-07T11:41:46;9.95;;;5.00;;
50367;SDS011;36281;34.132;-118.018;2022-08-07T11:44:35;9.98;;;4.68;;
50367;SDS011;36281;34.132;-118.018;2022-08-07T11:47:37;10.95;;;4.78;;
50367;SDS011;36281;34.132;-118.018;2022-08-07T11:50:32;10.30;;;4.70;;
50367;SDS011;36281;34.132;-118.018;2022-08-07T11:53:30;11.02;;;4.50;;
50367;SDS011;36281;34.132;-118.018;2022-08-07T11:56:44;11.95;;;4.50;;
50367;SDS011;36281;34.132;-118.018;2022-08-07T11:59:39;9.75;;;4.78;;
50367;SDS011;36281;34.132;-118.018;2022-08-07T12:06:11;10.15;;;4.70;;
50367;SDS011;36281;34.132;-118.018;2022-08-07T12:09:07;9.80;;;4.80;;
50367;SDS011;36281;34.132;-118.018;2022-08-07T12:11:46;12.00;;;5.00;;
50367;SDS011;36281;34.132;-118.018;2022-08-07T12:14:46;9.80;;;5.00;;
50367;SDS011;36281;34.132;-118.018;2022-08-07T12:17:29;8.95;;;4.30;;
50367;SDS011;36281;34.132;-118.018;2022-08-07T12:20:07;11.40;;;4.68;;
50367;SDS011;36281;34.132;-118.018;2022-08-07T12:26:22;9.82;;;4.80;;
50367;SDS011;36281;34.132;-118.018;2022-08-07T12:29:09;8.52;;;4.32;;
50367;SDS011;36281;34.132;-118.018;2022-08-07T12:32:05;8.07;;;4.78;;
50367;SDS011;36281;34.132;-118.018;2022-08-07T12:34:42;9.88;;;4.65;;
50367;SDS011;36281;34.132;-118.018;2022-08-07T12:37:19;11.35;;;5.15;;
50367;SDS011;36281;34.132;-118.018;2022-08-07T12:40:11;11.75;;;5.07;;
50367;SDS011;36281;34.132;-118.018;2022-08-07T12:43:03;7.22;;;4.40;;
50367;SDS011;36281;34.132;-118.018;2022-08-07T12:45:40;7.43;;;4.60;;
50367;SDS011;36281;34.132;-118.018;2022-08-07T12:48:23;11.23;;;4.70;;
50367;SDS011;36281;34.132;-118.018;2022-08-07T12:51:18;14.75;;;5.40;;
50367;SDS011;36281;34.132;-118.018;2022-08-07T12:54:13;11.20;;;5.13;;
50367;SDS011;36281;34.132;-118.018;2022-08-07T12:57:04;10.30;;;4.78;;
50367;SDS011;36281;34.132;-118.018;2022-08-07T12:59:36;8.70;;;4.93;;
50367;SDS011;36281;34.132;-118.018;2022-08-07T13:02:38;14.25;;;5.60;;
50367;SDS011;36281;34.132;-118.018;2022-08-07T13:05:25;9.98;;;5.00;;
50367;SDS011;36281;34.132;-118.018;2022-08-07T13:08:29;9.13;;;5.03;;
50367;SDS011;36281;34.132;-118.018;2022-08-07T13:11:07;11.52;;;5.20;;
50367;SDS011;36281;34.132;-118.018;2022-08-07T13:16:28;9.43;;;4.78;;
50367;SDS011;36281;34.132;-118.018;2022-08-07T13:19:07;12.80;;;4.75;;
50367;SDS011;36281;34.132;-118.018;2022-08-07T13:21:51;14.00;;;6.03;;
50367;SDS011;36281;34.132;-118.018;2022-08-07T13:24:39;12.85;;;5.05;;
50367;SDS011;36281;34.132;-118.018;2022-08-07T13:27:20;8.80;;;4.90;;
50367;SDS011;36281;34.132;-118.018;2022-08-07T13:30:14;7.50;;;5.03;;
50367;SDS011;36281;34.132;-118.018;2022-08-07T13:33:04;10.65;;;4.72;;
50367;SDS011;36281;34.132;-118.018;2022-08-07T13:36:00;9.52;;;4.90;;
50367;SDS011;36281;34.132;-118.018;2022-08-07T13:38:50;12.52;;;5.00;;
50367;SDS011;36281;34.132;-118.018;2022-08-07T13:41:32;9.18;;;4.68;;
50367;SDS011;36281;34.132;-118.018;2022-08-07T13:44:08;8.82;;;4.65;;
50367;SDS011;36281;34.132;-118.018;2022-08-07T13:46:40;8.77;;;4.15;;
50367;SDS011;36281;34.132;-118.018;2022-08-07T13:49:16;8.50;;;4.85;;
50367;SDS011;36281;34.132;-118.018;2022-08-07T13:52:08;8.02;;;4.60;;
50367;SDS011;36281;34.132;-118.018;2022-08-07T13:54:59;8.95;;;4.53;;
50367;SDS011;36281;34.132;-118.018;2022-08-07T13:57:37;6.90;;;4.43;;
50367;SDS011;36281;34.132;-118.018;2022-08-07T14:00:29;10.30;;;4.55;;
50367;SDS011;36281;34.132;-118.018;2022-08-07T14:03:20;11.73;;;4.50;;
50367;SDS011;36281;34.132;-118.018;2022-08-07T14:06:12;8.30;;;4.15;;
50367;SDS011;36281;34.132;-118.018;2022-08-07T14:08:44;9.32;;;4.18;;
50367;SDS011;36281;34.132;-118.018;2022-08-07T14:11:20;9.13;;;4.32;;
50367;SDS011;36281;34.132;-118.018;2022-08-07T14:13:53;8.00;;;4.43;;
50367;SDS011;36281;34.132;-118.018;2022-08-07T14:16:32;12.88;;;4.45;;
50367;SDS011;36281;34.132;-118.018;2022-08-07T14:19:13;6.60;;;3.97;;
50367;SDS011;36281;34.132;-118.018;2022-08-07T14:22:05;7.22;;;4.30;;
50367;SDS011;36281;34.132;-118.018;2022-08-07T14:24:40;10.50;;;4.43;;
50367;SDS011;36281;34.132;-118.018;2022-08-07T14:27:13;6.78;;;4.10;;
50367;SDS011;36281;34.132;-118.018;2022-08-07T14:30:09;9.65;;;4.70;;
50367;SDS011;36281;34.132;-118.018;2022-08-07T14:32:58;12.43;;;4.45;;
50367;SDS011;36281;34.132;-118.018;2022-08-07T14:35:31;10.02;;;4.80;;
50367;SDS011;36281;34.132;-118.018;2022-08-07T14:38:11;12.02;;;4.75;;
50367;SDS011;36281;34.132;-118.018;2022-08-07T14:40:59;10.97;;;4.97;;
50367;SDS011;36281;34.132;-118.018;2022-08-07T14:43:31;11.75;;;4.65;;
50367;SDS011;36281;34.132;-118.018;2022-08-07T14:46:25;9.05;;;4.40;;
50367;SDS011;36281;34.132;-118.018;2022-08-07T14:48:58;11.57;;;4.32;;
50367;SDS011;36281;34.132;-118.018;2022-08-07T14:51:48;11.45;;;4.70;;
50367;SDS011;36281;34.132;-118.018;2022-08-07T14:54:37;12.02;;;5.35;;
50367;SDS011;36281;34.132;-118.018;2022-08-07T14:57:11;11.63;;;4.60;;
50367;SDS011;36281;34.132;-118.018;2022-08-07T14:59:45;11.88;;;4.65;;
50367;SDS011;36281;34.132;-118.018;2022-08-07T15:05:02;8.45;;;4.70;;
50367;SDS011;36281;34.132;-118.018;2022-08-07T15:07:52;9.60;;;4.63;;
50367;SDS011;36281;34.132;-118.018;2022-08-07T15:10:25;7.22;;;4.30;;
50367;SDS011;36281;34.132;-118.018;2022-08-07T15:12:58;11.95;;;4.88;;
50367;SDS011;36281;34.132;-118.018;2022-08-07T15:15:38;10.10;;;4.75;;
50367;SDS011;36281;34.132;-118.018;2022-08-07T15:18:19;9.70;;;4.43;;
50367;SDS011;36281;34.132;-118.018;2022-08-07T15:21:17;8.77;;;4.07;;
50367;SDS011;36281;34.132;-118.018;2022-08-07T15:24:17;9.27;;;4.38;;
50367;SDS011;36281;34.132;-118.018;2022-08-07T15:27:08;7.80;;;4.18;;
50367;SDS011;36281;34.132;-118.018;2022-08-07T15:29:43;9.65;;;4.28;;
50367;SDS011;36281;34.132;-118.018;2022-08-07T15:32:38;8.02;;;4.10;;
50367;SDS011;36281;34.132;-118.018;2022-08-07T15:35:27;7.35;;;3.83;;
50367;SDS011;36281;34.132;-118.018;2022-08-07T15:38:18;7.15;;;4.13;;
50367;SDS011;36281;34.132;-118.018;2022-08-07T15:41:00;9.43;;;4.78;;
50367;SDS011;36281;34.132;-118.018;2022-08-07T15:43:57;8.50;;;4.15;;
50367;SDS011;36281;34.132;-118.018;2022-08-07T15:46:30;12.45;;;4.97;;
50367;SDS011;36281;34.132;-118.018;2022-08-07T15:49:05;9.15;;;4.75;;
50367;SDS011;36281;34.132;-118.018;2022-08-07T15:51:41;8.75;;;4.65;;
50367;SDS011;36281;34.132;-118.018;2022-08-07T15:54:24;10.55;;;4.50;;